Time;durP1;ratioP1;P1;durP2;ratioP2;P2;SDS_P1;SDS_P2;PMS_P1;PMS_P2;Temp;Humidity;BMP_temperature;BMP_pressure;BME280_temperature;BME280_humidity;BME280_pressure;Samples;Min_cycle;Max_cycle;Signal;HPM_P1;HPM_P2
2022/04/29 00:01:53;;;;;;;9.50;5.72;;;;;;;6.85;95.16;99790.72;5030275;28;20025;-67
2022/04/29 00:04:18;;;;;;;9.38;5.68;;;;;;;6.73;95.18;99774.00;5030436;28;20025;-67
2022/04/29 00:06:44;;;;;;;11.52;6.10;;;;;;;6.83;95.02;99779.28;5021676;28;20409;-66
2022/04/29 00:09:09;;;;;;;10.73;6.80;;;;;;;6.89;94.93;99794.81;5030993;28;20025;-66
2022/04/29 00:11:34;;;;;;;9.32;6.30;;;;;;;6.70;94.43;99782.34;5023331;28;20087;-66
2022/04/29 00:14:00;;;;;;;9.15;6.03;;;;;;;6.75;95.54;99792.66;5024254;28;20404;-67
2022/04/29 00:16:26;;;;;;;7.93;4.78;;;;;;;6.65;95.57;99797.25;5027034;28;20052;-66
2022/04/29 00:18:52;;;;;;;6.93;4.50;;;;;;;6.35;95.65;99753.63;5031328;28;20111;-67
2022/04/29 00:21:17;;;;;;;8.13;4.53;;;;;;;6.30;96.22;99766.69;5022401;28;20224;-67
2022/04/29 00:23:43;;;;;;;8.48;4.78;;;;;;;6.27;97.33;99772.38;5027264;28;20036;-67
2022/04/29 00:26:08;;;;;;;8.48;5.13;;;;;;;6.05;97.67;99752.13;5015000;28;20038;-66
2022/04/29 00:28:33;;;;;;;7.45;5.13;;;;;;;6.26;98.17;99786.78;5025414;28;20496;-66
2022/04/29 00:30:58;;;;;;;9.63;5.32;;;;;;;6.27;98.44;99785.81;5020700;28;20107;-66
2022/04/29 00:33:24;;;;;;;6.57;4.70;;;;;;;6.29;99.23;99776.59;5027675;28;20040;-66
2022/04/29 00:35:49;;;;;;;7.50;5.28;;;;;;;6.28;99.25;99777.56;5016747;28;20087;-67
2022/04/29 00:38:17;;;;;;;11.38;4.95;;;;;;;6.22;99.05;99762.06;5033940;28;20036;-66
2022/04/29 00:40:43;;;;;;;11.05;5.65;;;;;;;6.14;98.83;99770.03;5024237;28;20044;-67
2022/04/29 00:43:08;;;;;;;8.68;5.22;;;;;;;6.15;99.70;99774.41;5025787;28;20395;-66
2022/04/29 00:45:34;;;;;;;7.60;4.97;;;;;;;6.08;98.80;99767.97;5026719;28;20025;-66
2022/04/29 00:47:59;;;;;;;7.57;5.00;;;;;;;6.10;97.85;99763.28;5025918;28;20075;-66
2022/04/29 00:50:27;;;;;;;7.03;4.60;;;;;;;6.01;98.28;99758.81;5030477;28;20036;-67
2022/04/29 00:52:55;;;;;;;6.60;4.78;;;;;;;6.05;99.33;99757.50;5025283;28;20025;-67
2022/04/29 00:55:22;;;;;;;7.00;5.18;;;;;;;6.04;99.44;99755.81;5020702;28;20123;-67
2022/04/29 00:57:52;;;;;;;8.27;4.88;;;;;;;6.01;98.47;99764.19;5031992;28;20017;-67
2022/04/29 01:00:18;;;;;;;10.32;4.85;;;;;;;5.99;98.83;99769.69;5024097;28;20513;-66
2022/04/29 01:02:47;;;;;;;7.07;5.05;;;;;;;6.17;97.34;99772.41;5027962;28;20033;-67
2022/04/29 01:05:15;;;;;;;8.70;5.45;;;;;;;6.22;97.74;99775.50;5027340;28;20041;-67
2022/04/29 01:07:43;;;;;;;7.68;5.20;;;;;;;6.16;98.20;99765.38;5026652;28;20037;-67
2022/04/29 01:10:12;;;;;;;7.57;5.05;;;;;;;6.00;99.36;99757.09;5032181;28;20479;-67
2022/04/29 01:12:41;;;;;;;8.18;5.20;;;;;;;5.98;99.83;99769.88;5016190;28;20033;-67
2022/04/29 01:15:17;;;;;;;8.43;5.47;;;;;;;5.93;100.00;99763.09;5028543;28;20426;-67
2022/04/29 01:17:45;;;;;;;7.82;5.20;;;;;;;5.86;100.00;99758.44;5045480;28;20078;-67
2022/04/29 01:20:13;;;;;;;7.35;4.78;;;;;;;5.76;100.00;99745.03;5026979;28;20025;-67
2022/04/29 01:22:38;;;;;;;6.32;4.78;;;;;;;5.70;100.00;99738.44;5033335;28;20033;-67
2022/04/29 01:25:04;;;;;;;10.02;5.25;;;;;;;5.77;100.00;99749.44;5019783;28;20026;-68
2022/04/29 01:27:30;;;;;;;11.00;5.60;;;;;;;5.58;100.00;99720.88;5042874;28;20026;-67
2022/04/29 01:30:03;;;;;;;8.20;5.30;;;;;;;5.63;100.00;99736.50;5036226;28;20429;-67
2022/04/29 01:32:31;;;;;;;9.48;4.82;;;;;;;5.51;100.00;99719.75;5026958;28;20030;-67
2022/04/29 01:34:56;;;;;;;7.18;5.05;;;;;;;5.58;100.00;99745.03;5024172;28;20040;-67
2022/04/29 01:37:21;;;;;;;6.55;4.60;;;;;;;5.58;100.00;99731.59;5029152;28;20044;-67
2022/04/29 01:39:47;;;;;;;6.60;4.60;;;;;;;5.52;100.00;99726.81;5020997;28;20101;-67
2022/04/29 01:42:12;;;;;;;7.47;5.07;;;;;;;5.68;100.00;99729.69;5018205;28;20048;-67
2022/04/29 01:44:37;;;;;;;6.97;4.80;;;;;;;5.71;100.00;99734.78;5021756;28;20064;-67
2022/04/29 01:47:03;;;;;;;8.93;6.03;;;;;;;5.82;100.00;99736.41;5032599;28;20453;-67
2022/04/29 01:49:28;;;;;;;8.02;5.20;;;;;;;5.67;100.00;99717.25;5023565;28;20088;-67
2022/04/29 01:51:55;;;;;;;7.47;5.40;;;;;;;5.84;100.00;99742.50;5029834;28;20091;-67
2022/04/29 01:54:21;;;;;;;12.00;5.35;;;;;;;5.65;100.00;99739.88;5022998;28;20041;-66
2022/04/29 01:56:47;;;;;;;11.43;5.53;;;;;;;5.52;100.00;99745.59;5019309;28;20018;-66
2022/04/29 01:59:13;;;;;;;9.45;5.82;;;;;;;5.44;100.00;99749.00;5012368;28;20034;-67
2022/04/29 02:01:38;;;;;;;10.60;5.88;;;;;;;5.35;100.00;99741.00;5023375;28;20067;-66
2022/04/29 02:04:04;;;;;;;8.20;5.45;;;;;;;5.28;100.00;99755.00;5043563;28;20091;-67
2022/04/29 02:06:29;;;;;;;14.82;6.30;;;;;;;5.20;100.00;99735.25;5015287;28;20442;-67
2022/04/29 02:08:55;;;;;;;12.23;5.82;;;;;;;5.17;100.00;99722.16;5025415;28;20395;-67
2022/04/29 02:11:21;;;;;;;7.93;5.63;;;;;;;5.31;100.00;99740.44;5020462;28;20033;-67
2022/04/29 02:13:47;;;;;;;7.22;5.57;;;;;;;5.21;100.00;99742.31;5019486;28;20025;-67
2022/04/29 02:16:13;;;;;;;7.47;5.68;;;;;;;5.21;100.00;99740.50;5020425;28;20044;-67
2022/04/29 02:18:39;;;;;;;11.63;6.38;;;;;;;5.24;100.00;99737.53;5024909;28;20032;-67
2022/04/29 02:21:04;;;;;;;11.95;6.03;;;;;;;5.23;100.00;99726.91;5020751;28;20041;-67
2022/04/29 02:23:30;;;;;;;9.07;5.55;;;;;;;5.40;100.00;99730.69;5022228;28;20029;-67
2022/04/29 02:25:57;;;;;;;11.13;5.72;;;;;;;5.22;100.00;99709.16;5031127;28;20078;-67
2022/04/29 02:28:23;;;;;;;11.55;5.70;;;;;;;5.23;100.00;99726.91;5022708;28;20058;-67
2022/04/29 02:30:48;;;;;;;12.77;5.53;;;;;;;5.17;100.00;99717.63;5025085;28;20439;-67
2022/04/29 02:33:13;;;;;;;7.20;5.50;;;;;;;5.19;100.00;99723.69;5015291;28;20413;-67
2022/04/29 02:35:39;;;;;;;7.72;5.30;;;;;;;5.13;100.00;99726.09;5022018;28;20395;-67
2022/04/29 02:38:04;;;;;;;7.68;5.22;;;;;;;4.87;100.00;99707.13;5024608;28;20026;-67
2022/04/29 02:40:29;;;;;;;8.95;6.00;;;;;;;4.92;100.00;99715.56;5013646;28;20035;-67
2022/04/29 02:42:55;;;;;;;9.02;5.05;;;;;;;4.91;100.00;99725.47;5015745;28;20044;-67
2022/04/29 02:45:20;;;;;;;8.75;5.22;;;;;;;4.79;100.00;99714.06;5030265;28;20514;-67
2022/04/29 02:47:45;;;;;;;8.43;5.70;;;;;;;4.77;100.00;99715.19;5019194;28;20386;-67
2022/04/29 02:50:10;;;;;;;8.77;5.50;;;;;;;4.68;100.00;99724.91;5022633;28;20033;-67
2022/04/29 02:52:36;;;;;;;9.25;5.90;;;;;;;4.54;100.00;99699.41;5029797;28;20061;-66
2022/04/29 02:55:01;;;;;;;7.80;5.38;;;;;;;4.60;100.00;99727.47;5029407;28;20033;-67
2022/04/29 02:57:27;;;;;;;6.38;4.75;;;;;;;4.53;100.00;99723.66;5026236;28;20025;-67
2022/04/29 02:59:52;;;;;;;9.57;5.45;;;;;;;4.53;100.00;99721.84;5018187;28;20083;-67
2022/04/29 03:02:18;;;;;;;8.57;5.70;;;;;;;4.76;100.00;99726.88;5026153;28;20017;-67
2022/04/29 03:04:43;;;;;;;7.50;5.60;;;;;;;4.80;100.00;99723.78;5029412;28;20030;-66
2022/04/29 03:07:08;;;;;;;8.02;5.80;;;;;;;4.79;100.00;99719.44;5031977;28;20056;-67
2022/04/29 03:09:34;;;;;;;6.85;5.15;;;;;;;4.87;100.00;99716.00;5032778;28;20033;-67
2022/04/29 03:11:59;;;;;;;8.43;5.43;;;;;;;4.79;100.00;99716.75;5029935;28;20036;-67
2022/04/29 03:14:24;;;;;;;7.70;4.82;;;;;;;4.83;100.00;99717.28;5034251;28;20538;-67
2022/04/29 03:16:50;;;;;;;9.65;5.30;;;;;;;4.68;100.00;99708.84;5033704;28;20051;-67
2022/04/29 03:19:15;;;;;;;6.88;5.03;;;;;;;4.55;100.00;99698.41;5030102;28;20557;-67
2022/04/29 03:21:40;;;;;;;9.40;5.25;;;;;;;4.50;100.00;99702.50;5029866;28;20045;-67
2022/04/29 03:24:06;;;;;;;7.60;5.63;;;;;;;4.65;100.00;99713.66;5016051;28;20427;-66
2022/04/29 03:26:31;;;;;;;7.90;5.53;;;;;;;4.47;100.00;99686.72;5023089;28;20078;-66
2022/04/29 03:28:57;;;;;;;14.27;5.97;;;;;;;4.61;100.00;99668.38;5032257;28;20036;-68
2022/04/29 03:31:23;;;;;;;10.40;5.25;;;;;;;4.60;100.00;99680.06;5029954;28;20026;-77
2022/04/29 03:33:48;;;;;;;7.47;5.65;;;;;;;4.60;100.00;99673.88;5043047;28;20036;-73
2022/04/29 03:36:14;;;;;;;8.07;5.28;;;;;;;4.53;100.00;99675.44;5029512;28;20501;-73
2022/04/29 03:38:40;;;;;;;7.38;5.80;;;;;;;4.68;100.00;99700.81;5026603;28;20037;-73
2022/04/29 03:41:06;;;;;;;7.65;5.82;;;;;;;4.69;100.00;99699.81;5026301;28;20033;-74
2022/04/29 03:43:32;;;;;;;14.35;5.53;;;;;;;4.43;100.00;99672.78;5032954;28;20051;-75
2022/04/29 03:45:57;;;;;;;9.07;6.43;;;;;;;4.60;100.00;99695.31;5050349;28;20116;-74
2022/04/29 03:48:23;;;;;;;8.23;5.93;;;;;;;4.36;100.00;99675.16;5018363;28;20030;-75
2022/04/29 03:50:48;;;;;;;10.63;6.80;;;;;;;4.29;100.00;99667.84;5038607;28;20648;-75
2022/04/29 03:53:13;;;;;;;8.88;6.45;;;;;;;4.34;100.00;99681.66;5032977;28;20109;-74
2022/04/29 03:55:39;;;;;;;9.55;6.80;;;;;;;4.46;100.00;99699.28;5038565;28;20068;-75
2022/04/29 03:58:04;;;;;;;10.23;6.63;;;;;;;4.40;100.00;99697.16;5031277;28;20034;-72
2022/04/29 04:00:32;;;;;;;12.48;7.53;;;;;;;4.36;100.00;99687.72;5029539;28;20017;-70
2022/04/29 04:03:05;;;;;;;8.95;6.40;;;;;;;4.59;100.00;99691.78;5028137;28;20021;-70
2022/04/29 04:05:31;;;;;;;12.32;6.63;;;;;;;4.67;100.00;99696.44;5024127;28;20029;-70
2022/04/29 04:07:56;;;;;;;9.00;7.05;;;;;;;4.63;100.00;99700.38;5026323;28;20032;-72
2022/04/29 04:10:21;;;;;;;13.63;6.82;;;;;;;4.56;100.00;99665.28;5023710;28;20029;-73
2022/04/29 04:12:49;;;;;;;10.82;7.05;;;;;;;4.69;100.00;99694.47;5020024;28;20365;-72
2022/04/29 04:15:16;;;;;;;10.48;6.88;;;;;;;4.65;100.00;99694.88;5021540;28;20412;-69
2022/04/29 04:17:42;;;;;;;9.73;7.07;;;;;;;4.63;100.00;99686.97;5026267;28;20030;-71
2022/04/29 04:20:09;;;;;;;12.15;7.28;;;;;;;4.83;100.00;99702.03;5019024;28;20039;-67
2022/04/29 04:22:37;;;;;;;10.30;6.80;;;;;;;4.82;100.00;99704.84;5017292;28;20025;-75
2022/04/29 04:25:04;;;;;;;11.52;6.43;;;;;;;4.70;100.00;99669.34;5030536;28;20028;-75
2022/04/29 04:27:31;;;;;;;8.95;6.28;;;;;;;4.62;100.00;99631.69;5019795;28;20028;-75
2022/04/29 04:29:56;;;;;;;8.23;5.60;;;;;;;5.07;100.00;99708.75;5017257;28;20525;-68
2022/04/29 04:32:22;;;;;;;9.60;6.20;;;;;;;5.12;100.00;99694.91;5016631;28;20030;-72
2022/04/29 04:34:50;;;;;;;9.52;6.15;;;;;;;5.20;100.00;99689.66;5039014;28;20399;-69
2022/04/29 04:37:17;;;;;;;9.05;6.00;;;;;;;5.01;100.00;99651.19;5046285;28;20539;-75
2022/04/29 04:39:42;;;;;;;8.77;6.13;;;;;;;5.40;100.00;99682.38;5017081;28;20057;-68
2022/04/29 04:42:08;;;;;;;11.07;6.43;;;;;;;5.54;100.00;99699.81;5027125;28;20044;-68
2022/04/29 04:44:33;;;;;;;10.63;6.60;;;;;;;5.70;100.00;99708.06;5030416;28;20032;-68
2022/04/29 04:46:59;;;;;;;9.18;6.03;;;;;;;5.91;99.28;99724.75;5025140;28;20459;-64
2022/04/29 04:49:24;;;;;;;10.35;6.30;;;;;;;5.84;98.19;99695.97;5022104;28;20030;-65
2022/04/29 04:51:49;;;;;;;9.60;5.80;;;;;;;5.89;97.73;99699.03;5019475;28;20030;-73
2022/04/29 04:54:15;;;;;;;11.35;5.38;;;;;;;6.01;97.07;99711.31;5028127;28;20471;-70
2022/04/29 04:56:40;;;;;;;7.07;5.10;;;;;;;6.03;95.84;99706.63;5019892;28;20034;-72
2022/04/29 04:59:05;;;;;;;8.38;5.35;;;;;;;6.34;95.07;99720.53;5029874;28;20025;-69
2022/04/29 05:01:31;;;;;;;7.47;4.97;;;;;;;6.24;95.22;99703.66;5027326;28;20052;-69
2022/04/29 05:03:56;;;;;;;8.85;5.30;;;;;;;6.31;94.35;99720.84;5024507;28;20025;-71
2022/04/29 05:06:21;;;;;;;7.28;5.30;;;;;;;6.22;94.33;99684.16;5017709;28;20079;-69
2022/04/29 05:08:47;;;;;;;9.25;5.40;;;;;;;6.47;93.46;99717.47;5022824;28;20026;-68
2022/04/29 05:11:12;;;;;;;7.93;5.57;;;;;;;6.44;92.64;99704.31;5018155;28;20101;-70
2022/04/29 05:13:37;;;;;;;8.48;5.28;;;;;;;6.44;91.74;99715.06;5033926;28;20034;-69
2022/04/29 05:16:03;;;;;;;8.65;5.45;;;;;;;6.54;91.59;99726.59;5028813;28;20055;-71
2022/04/29 05:18:28;;;;;;;6.90;5.22;;;;;;;6.64;91.77;99729.19;5024019;28;20549;-69
2022/04/29 05:20:53;;;;;;;9.35;5.00;;;;;;;6.58;89.48;99738.72;5027363;28;20029;-63
2022/04/29 05:23:19;;;;;;;8.32;4.75;;;;;;;6.51;89.48;99736.81;5030519;28;20406;-64
2022/04/29 05:25:44;;;;;;;7.50;5.25;;;;;;;6.59;89.30;99742.25;5024954;28;20029;-67
2022/04/29 05:28:09;;;;;;;8.52;5.45;;;;;;;6.47;89.41;99724.66;5022876;28;20025;-70
2022/04/29 05:30:35;;;;;;;8.40;5.15;;;;;;;6.84;88.03;99747.84;5021641;28;20053;-65
2022/04/29 05:33:01;;;;;;;8.30;5.18;;;;;;;6.76;89.17;99729.81;5022507;28;20036;-65
2022/04/29 05:35:28;;;;;;;7.13;5.05;;;;;;;6.91;89.08;99754.28;5026538;28;20025;-65
2022/04/29 05:37:53;;;;;;;8.10;5.25;;;;;;;7.18;87.36;99750.63;5028145;28;20029;-65
2022/04/29 05:43:03;;;;;;;8.75;5.78;;;;;;;7.44;84.75;99734.44;5021056;28;20103;-65
2022/04/29 05:45:29;;;;;;;10.23;5.70;;;;;;;7.69;83.11;99756.94;5024988;28;20076;-65
2022/04/29 05:47:55;;;;;;;8.10;5.70;;;;;;;7.74;84.48;99729.53;5017909;28;20034;-65
2022/04/29 05:50:20;;;;;;;12.05;5.75;;;;;;;8.12;81.05;99738.91;5028347;28;20036;-65
2022/04/29 05:52:45;;;;;;;10.52;6.00;;;;;;;8.13;80.21;99760.31;5030855;28;20029;-66
2022/04/29 05:55:12;;;;;;;10.88;5.03;;;;;;;8.07;80.63;99736.72;5026586;28;20033;-71
2022/04/29 05:57:37;;;;;;;9.38;5.45;;;;;;;8.28;80.47;99741.66;5028780;28;20460;-71
2022/04/29 06:00:04;;;;;;;9.35;5.07;;;;;;;8.71;77.54;99738.88;5035267;28;20035;-70
2022/04/29 06:02:29;;;;;;;8.55;5.88;;;;;;;9.15;75.34;99735.81;5036868;28;20018;-73
2022/04/29 06:04:54;;;;;;;8.07;5.65;;;;;;;9.64;73.25;99747.34;5026308;28;20052;-73
2022/04/29 06:07:20;;;;;;;7.75;5.53;;;;;;;10.09;71.77;99742.25;5023747;28;20113;-68
2022/04/29 06:09:45;;;;;;;7.50;5.22;;;;;;;10.90;68.82;99750.84;5028832;28;20021;-69
2022/04/29 06:12:11;;;;;;;7.75;5.60;;;;;;;11.19;67.40;99741.97;5044039;28;20029;-68
2022/04/29 06:14:36;;;;;;;8.00;4.93;;;;;;;12.55;61.40;99737.03;5018242;28;20084;-71
2022/04/29 06:17:02;;;;;;;7.32;5.13;;;;;;;14.09;56.22;99728.97;5024551;28;20172;-70
2022/04/29 06:19:27;;;;;;;9.05;5.60;;;;;;;15.31;53.41;99727.91;5020962;28;20034;-77
2022/04/29 06:21:53;;;;;;;12.35;5.57;;;;;;;16.92;49.64;99724.31;5036848;28;22223;-75
2022/04/29 06:24:18;;;;;;;11.18;5.40;;;;;;;18.26;45.80;99735.59;5030881;28;20040;-69
2022/04/29 06:26:44;;;;;;;8.95;5.53;;;;;;;19.02;43.69;99701.19;5022442;28;20037;-70
2022/04/29 06:29:09;;;;;;;6.82;4.88;;;;;;;21.01;38.47;99711.91;5027733;28;20037;-76
2022/04/29 06:31:34;;;;;;;6.45;4.88;;;;;;;20.53;39.32;99727.81;5036964;28;20017;-69
2022/04/29 06:34:00;;;;;;;8.75;5.05;;;;;;;21.76;36.26;99712.53;5027087;28;20033;-69
2022/04/29 06:36:25;;;;;;;8.32;5.75;;;;;;;21.53;37.11;99732.84;5019884;28;20087;-68
2022/04/29 06:38:51;;;;;;;6.63;4.90;;;;;;;21.53;38.10;99741.13;5020867;28;20065;-68
2022/04/29 06:41:16;;;;;;;6.78;4.97;;;;;;;20.06;40.08;99740.88;5023214;28;20021;-69
2022/04/29 06:43:41;;;;;;;7.30;4.50;;;;;;;19.39;39.94;99717.44;5025063;28;20044;-74
2022/04/29 06:46:07;;;;;;;10.10;5.18;;;;;;;18.71;41.70;99740.66;5020677;28;20030;-67
2022/04/29 06:48:32;;;;;;;12.02;5.90;;;;;;;17.70;44.38;99739.38;5015654;28;20022;-69
2022/04/29 06:50:58;;;;;;;9.55;5.28;;;;;;;17.17;45.50;99740.75;5032982;28;20040;-71
2022/04/29 06:53:24;;;;;;;8.70;5.20;;;;;;;16.65;46.50;99732.69;5030680;28;20025;-70
2022/04/29 06:55:49;;;;;;;13.27;5.18;;;;;;;16.31;46.89;99717.53;5024226;28;20360;-72
2022/04/29 06:58:14;;;;;;;7.80;5.13;;;;;;;15.85;48.65;99745.91;5025723;28;20027;-69
2022/04/29 07:00:40;;;;;;;7.85;5.15;;;;;;;16.72;46.02;99732.66;5021870;28;20021;-68
2022/04/29 07:03:06;;;;;;;6.53;4.82;;;;;;;17.19;44.37;99707.72;5031654;28;20045;-70
2022/04/29 07:05:32;;;;;;;8.00;5.15;;;;;;;18.12;42.23;99695.75;5021393;28;20073;-71
2022/04/29 07:07:58;;;;;;;8.15;5.60;;;;;;;18.66;41.69;99721.34;5032550;28;20032;-70
2022/04/29 07:10:23;;;;;;;6.97;5.28;;;;;;;19.24;40.11;99719.81;5026057;28;20615;-73
2022/04/29 07:12:49;;;;;;;9.10;5.28;;;;;;;20.44;38.04;99718.31;5022218;28;20053;-71
2022/04/29 07:15:15;;;;;;;7.43;5.03;;;;;;;21.45;37.50;99707.41;5026031;28;20068;-69
2022/04/29 07:17:42;;;;;;;9.98;5.38;;;;;;;21.73;36.64;99696.53;5030515;28;20452;-70
2022/04/29 07:20:09;;;;;;;7.78;5.07;;;;;;;23.46;33.79;99707.69;5022850;28;20029;-69
2022/04/29 07:22:38;;;;;;;8.25;4.75;;;;;;;20.69;37.98;99676.72;5028265;28;20108;-67
2022/04/29 07:25:05;;;;;;;6.22;5.18;;;;;;;21.34;37.60;99705.56;5024416;28;20476;-70
2022/04/29 07:27:32;;;;;;;6.55;4.95;;;;;;;22.53;36.06;99686.72;5023049;28;20116;-69
2022/04/29 07:29:57;;;;;;;5.90;4.70;;;;;;;22.84;35.00;99695.31;5033323;28;20029;-67
2022/04/29 07:32:25;;;;;;;7.75;4.78;;;;;;;24.03;33.80;99677.34;5030936;28;20079;-69
2022/04/29 07:43:02;;;;;;;6.72;4.72;;;;;;;28.43;27.19;99685.50;5028462;28;20036;-71
2022/04/29 07:45:27;;;;;;;7.47;4.32;;;;;;;27.81;27.33;99677.13;5039104;28;20026;-70
2022/04/29 07:47:53;;;;;;;5.13;3.97;;;;;;;26.72;29.62;99683.94;5039977;28;20029;-75
2022/04/29 07:50:18;;;;;;;7.13;4.20;;;;;;;24.91;31.81;99683.91;5031126;28;20026;-72
2022/04/29 07:52:44;;;;;;;6.72;4.72;;;;;;;23.33;35.39;99693.25;5022041;28;20040;-66
2022/04/29 07:55:10;;;;;;;5.57;4.30;;;;;;;22.06;36.36;99693.66;5033581;28;20112;-71
2022/04/29 07:57:35;;;;;;;6.45;4.50;;;;;;;21.06;38.44;99692.72;5030720;28;20059;-69
2022/04/29 08:00:01;;;;;;;8.88;4.82;;;;;;;20.76;40.14;99696.66;5032698;28;20598;-68
2022/04/29 08:02:26;;;;;;;5.28;4.47;;;;;;;20.42;40.53;99686.66;5030133;28;20447;-73
2022/04/29 08:04:51;;;;;;;6.47;4.65;;;;;;;19.63;42.27;99682.56;5030894;28;20075;-77
2022/04/29 08:07:17;;;;;;;6.50;5.00;;;;;;;18.59;43.18;99665.78;5021973;28;20018;-71
2022/04/29 08:09:42;;;;;;;6.75;4.60;;;;;;;18.60;43.80;99661.97;5024046;28;20034;-68
2022/04/29 08:12:10;;;;;;;11.65;5.43;;;;;;;18.85;43.78;99693.88;5029189;28;20029;-66
2022/04/29 08:14:35;;;;;;;8.25;5.32;;;;;;;18.73;44.16;99696.56;5028883;28;20025;-71
2022/04/29 08:17:01;;;;;;;6.53;4.70;;;;;;;19.34;43.40;99698.09;5027277;28;20116;-70
2022/04/29 08:19:27;;;;;;;6.68;4.47;;;;;;;19.74;43.32;99689.13;5025254;28;20056;-70
2022/04/29 08:21:52;;;;;;;11.00;5.93;;;;;;;19.66;43.34;99697.72;5030922;28;20095;-69
2022/04/29 08:24:17;;;;;;;7.68;5.68;;;;;;;19.69;43.30;99684.38;5016773;28;20037;-70
2022/04/29 08:26:43;;;;;;;8.23;5.78;;;;;;;20.26;42.32;99694.59;5027053;28;20045;-70
2022/04/29 08:29:10;;;;;;;7.28;4.65;;;;;;;22.27;39.58;99692.00;5025800;28;20021;-69
2022/04/29 08:31:36;;;;;;;9.35;5.28;;;;;;;24.60;35.61;99686.69;5038051;28;20052;-67
2022/04/29 08:34:01;;;;;;;8.13;5.70;;;;;;;24.84;33.57;99683.38;5020047;28;20033;-70
2022/04/29 08:36:27;;;;;;;7.30;5.38;;;;;;;26.09;31.70;99681.78;5034401;28;20041;-69
2022/04/29 08:38:52;;;;;;;8.10;4.47;;;;;;;27.07;30.24;99687.56;5024472;28;20030;-70
2022/04/29 08:41:19;;;;;;;6.10;4.28;;;;;;;26.64;29.87;99679.00;5025546;28;20036;-68
2022/04/29 08:43:47;;;;;;;6.97;4.20;;;;;;;28.34;28.17;99684.50;5028657;28;20103;-69
2022/04/29 08:46:13;;;;;;;9.68;4.65;;;;;;;28.95;26.49;99683.63;5022739;28;20116;-68
2022/04/29 08:48:41;;;;;;;6.45;4.35;;;;;;;29.63;25.74;99672.94;5022468;28;20044;-70
2022/04/29 08:51:07;;;;;;;5.75;4.53;;;;;;;30.88;25.80;99668.84;5029283;28;20053;-75
2022/04/29 08:53:34;;;;;;;5.70;4.28;;;;;;;30.61;25.83;99671.75;5022817;28;20490;-70
2022/04/29 08:58:47;;;;;;;5.75;3.83;;;;;;;30.35;26.47;99659.19;4996538;28;20581;-71
2022/04/29 09:01:16;;;;;;;4.78;4.28;;;;;;;30.46;26.40;99661.75;5026687;28;20033;-68
2022/04/29 09:03:45;;;;;;;5.15;4.57;;;;;;;28.85;27.62;99661.50;5023128;28;20030;-71
2022/04/29 09:06:12;;;;;;;7.40;5.00;;;;;;;27.18;29.46;99653.03;5026031;28;20491;-67
2022/04/29 09:08:45;;;;;;;6.05;5.07;;;;;;;27.11;29.92;99652.50;5032067;28;20112;-72
2022/04/29 09:11:22;;;;;;;5.03;4.38;;;;;;;30.05;27.02;99652.31;5019941;28;20025;-67
2022/04/29 09:13:47;;;;;;;7.07;4.50;;;;;;;31.63;24.68;99630.81;5020707;28;20033;-71
2022/04/29 09:16:14;;;;;;;6.75;4.30;;;;;;;32.42;22.84;99634.63;5026249;28;20041;-67
2022/04/29 09:18:45;;;;;;;6.57;4.32;;;;;;;31.40;23.87;99626.44;5029626;28;20067;-69
2022/04/29 09:21:12;;;;;;;6.63;4.55;;;;;;;30.90;24.34;99635.84;5023514;28;20034;-64
2022/04/29 09:23:43;;;;;;;4.88;3.72;;;;;;;30.29;24.82;99631.72;5036784;28;20025;-64
2022/04/29 09:26:25;;;;;;;3.85;3.45;;;;;;;30.68;23.96;99621.84;5021818;28;20033;-64
2022/04/29 09:28:52;;;;;;;7.65;2.40;;;;;;;31.17;19.83;99609.69;5027435;28;20034;-65
2022/04/29 09:31:18;;;;;;;2.15;1.80;;;;;;;30.49;18.90;99614.47;5023727;28;20388;-67
2022/04/29 09:33:55;;;;;;;2.53;1.67;;;;;;;31.40;17.89;99609.66;5027301;28;20025;-65
2022/04/29 09:36:22;;;;;;;3.30;2.30;;;;;;;29.68;20.34;99612.34;5014182;28;20030;-66
2022/04/29 09:42:04;;;;;;;2.70;1.98;;;;;;;28.57;19.91;99614.03;5019877;28;20059;-66
2022/04/29 09:44:36;;;;;;;4.05;2.20;;;;;;;28.08;20.92;99620.84;5021374;28;20645;-67
2022/04/29 09:47:12;;;;;;;2.65;2.05;;;;;;;27.76;21.13;99611.22;5028104;28;20018;-67
2022/04/29 09:49:38;;;;;;;2.75;2.15;;;;;;;27.15;23.04;99591.66;5035765;28;20030;-68
2022/04/29 09:52:05;;;;;;;2.17;1.98;;;;;;;26.54;23.32;99601.34;5023902;28;20542;-68
2022/04/29 09:54:37;;;;;;;5.60;2.75;;;;;;;25.95;23.44;99603.94;5018569;28;20147;-69
2022/04/29 09:57:08;;;;;;;4.45;2.42;;;;;;;25.92;23.49;99593.41;5021631;28;20044;-66
2022/04/29 09:59:34;;;;;;;3.35;2.22;;;;;;;25.85;23.15;99590.13;5021642;28;20055;-67
2022/04/29 10:02:00;;;;;;;5.78;2.25;;;;;;;25.21;24.15;99583.41;5027610;28;20057;-74
2022/04/29 10:04:29;;;;;;;4.28;2.40;;;;;;;24.67;24.80;99600.59;5025499;28;20028;-66
2022/04/29 10:06:54;;;;;;;3.00;2.28;;;;;;;24.10;25.83;99591.38;5019672;28;20034;-66
2022/04/29 10:09:22;;;;;;;4.00;2.40;;;;;;;24.17;25.26;99569.84;5025488;28;20575;-66
2022/04/29 10:11:49;;;;;;;5.13;2.10;;;;;;;23.69;26.16;99596.78;5025253;28;20427;-65
2022/04/29 10:14:17;;;;;;;3.60;2.20;;;;;;;23.86;25.77;99595.75;5021334;28;20033;-65
2022/04/29 10:16:45;;;;;;;4.95;2.10;;;;;;;24.33;24.55;99583.69;5018667;28;22347;-65
2022/04/29 10:22:03;;;;;;;4.72;2.17;;;;;;;25.31;23.74;99566.78;5018386;28;20049;-65
2022/04/29 10:24:29;;;;;;;3.47;2.03;;;;;;;26.31;23.81;99587.06;5018095;28;20029;-65
2022/04/29 10:26:57;;;;;;;3.25;2.03;;;;;;;26.93;23.30;99576.28;5011892;28;20483;-65
2022/04/29 10:29:23;;;;;;;4.28;2.13;;;;;;;27.81;22.71;99576.19;5017344;28;20032;-63
2022/04/29 10:32:07;;;;;;;3.83;2.30;;;;;;;29.12;20.32;99565.22;5015929;28;20409;-64
2022/04/29 10:34:34;;;;;;;3.15;2.00;;;;;;;29.10;21.98;99565.50;5017855;28;20037;-62
2022/04/29 10:37:00;;;;;;;5.20;2.20;;;;;;;29.12;20.54;99563.25;5019117;28;20099;-62
2022/04/29 10:39:26;;;;;;;3.13;2.10;;;;;;;29.37;20.41;99558.28;5025974;28;20041;-63
2022/04/29 10:42:03;;;;;;;2.55;1.63;;;;;;;28.37;21.33;99567.00;5018491;28;20517;-63
2022/04/29 10:44:29;;;;;;;3.90;1.77;;;;;;;29.48;20.88;99543.84;5022317;28;20430;-63
2022/04/29 10:46:55;;;;;;;3.00;1.88;;;;;;;28.65;20.86;99554.03;5017016;28;20147;-63
2022/04/29 10:49:30;;;;;;;2.22;1.70;;;;;;;29.76;20.37;99529.88;5016179;28;20575;-63
2022/04/29 10:52:02;;;;;;;3.28;1.90;;;;;;;29.63;21.17;99525.97;5015578;28;20025;-63
2022/04/29 10:54:33;;;;;;;2.03;1.58;;;;;;;29.94;18.95;99539.25;5018627;28;20651;-62
2022/04/29 10:57:15;;;;;;;3.08;1.60;;;;;;;30.46;18.59;99541.69;5012994;28;20096;-61
2022/04/29 10:59:51;;;;;;;3.55;1.98;;;;;;;31.14;18.00;99537.66;5018253;28;20029;-63
2022/04/29 11:02:23;;;;;;;3.67;2.08;;;;;;;31.04;18.43;99532.34;5019609;28;20057;-65
2022/04/29 11:04:49;;;;;;;2.22;1.80;;;;;;;30.53;18.62;99528.09;5025813;28;20510;-68
2022/04/29 11:07:44;;;;;;;2.90;1.85;;;;;;;29.61;19.89;99533.00;5025340;28;20136;-68
2022/04/29 11:10:15;;;;;;;2.22;1.77;;;;;;;29.17;19.54;99535.28;5019910;28;20454;-65
2022/04/29 11:12:54;;;;;;;2.33;1.80;;;;;;;30.54;17.99;99526.94;5016240;28;20030;-67
2022/04/29 11:15:21;;;;;;;2.70;2.00;;;;;;;29.84;20.28;99525.53;5015176;28;20034;-74
2022/04/29 11:17:47;;;;;;;2.90;1.80;;;;;;;29.11;21.52;99513.38;5018828;28;20029;-68
2022/04/29 11:20:23;;;;;;;3.47;1.95;;;;;;;27.68;22.14;99522.94;5021769;28;20037;-70
2022/04/29 11:25:58;;;;;;;2.40;1.85;;;;;;;27.96;21.17;99525.91;5023690;28;20045;-64
2022/04/29 11:28:25;;;;;;;3.00;1.70;;;;;;;27.42;21.87;99519.66;5026266;28;20033;-67
2022/04/29 11:31:02;;;;;;;6.10;1.92;;;;;;;27.23;22.49;99510.47;5026112;28;20029;-68
2022/04/29 11:33:28;;;;;;;4.05;2.22;;;;;;;25.44;22.78;99485.00;5015057;28;20488;-70
2022/04/29 11:36:03;;;;;;;4.50;2.08;;;;;;;24.57;24.41;99523.13;5025405;28;20030;-67
2022/04/29 11:38:30;;;;;;;3.38;2.00;;;;;;;24.18;25.77;99504.31;5028094;28;20428;-68
2022/04/29 11:40:56;;;;;;;5.00;2.00;;;;;;;24.12;26.24;99510.94;5024900;28;20036;-65
2022/04/29 11:43:22;;;;;;;3.70;1.95;;;;;;;24.76;24.97;99492.94;5029703;28;20029;-65
2022/04/29 11:45:58;;;;;;;3.17;1.92;;;;;;;24.92;24.65;99494.59;5021010;28;20033;-70
2022/04/29 11:48:23;;;;;;;3.75;2.40;;;;;;;24.96;24.25;99514.22;5017713;28;20029;-72
2022/04/29 11:50:49;;;;;;;4.65;2.53;;;;;;;23.89;24.99;99501.25;5022890;28;20069;-64
2022/04/29 11:53:14;;;;;;;2.65;2.03;;;;;;;23.36;25.60;99512.38;5023903;28;20030;-63
2022/04/29 11:55:39;;;;;;;5.07;2.03;;;;;;;23.53;26.08;99506.66;5016252;28;20041;-67